createdAt,value
2022-09-23T00:01:22.461Z,100573.27
2022-09-23T00:03:50.278Z,100575.14
2022-09-23T00:06:21.531Z,100573.77
2022-09-23T00:08:50.239Z,100572.63
2022-09-23T00:11:26.424Z,100568.06
2022-09-23T00:13:56.884Z,100569.58
2022-09-23T00:16:28.504Z,100564.40
2022-09-23T00:18:56.902Z,100566.04
2022-09-23T00:21:25.189Z,100565.16
2022-09-23T00:23:53.667Z,100565.73
2022-09-23T00:26:23.043Z,100563.52
2022-09-23T00:28:51.780Z,100563.34
2022-09-23T00:31:25.890Z,100563.13
2022-09-23T00:33:59.291Z,100564.26
2022-09-23T00:36:28.543Z,100562.42
2022-09-23T00:38:56.223Z,100558.20
2022-09-23T00:41:25.147Z,100560.58
2022-09-23T00:43:56.668Z,100553.42
2022-09-23T00:46:33.940Z,100552.64
2022-09-23T00:49:06.526Z,100556.27
2022-09-23T00:51:39.512Z,100564.70
2022-09-23T00:54:07.919Z,100567.52
2022-09-23T00:56:38.423Z,100570.14
2022-09-23T00:59:09.684Z,100566.19
2022-09-23T01:01:39.015Z,100558.81
2022-09-23T01:04:07.968Z,100560.97
2022-09-23T01:06:36.151Z,100558.16
2022-09-23T01:09:04.311Z,100558.19
2022-09-23T01:11:51.081Z,100555.63
2022-09-23T01:14:48.700Z,100553.94
2022-09-23T01:17:29.378Z,100553.75
2022-09-23T01:20:29.010Z,100549.88
2022-09-23T01:23:17.818Z,100551.33
2022-09-23T01:26:08.006Z,100551.55
2022-09-23T01:28:54.730Z,100555.29
2022-09-23T01:31:42.860Z,100551.88
2022-09-23T01:34:25.536Z,100555.84
2022-09-23T01:37:03.282Z,100556.43
2022-09-23T01:39:38.844Z,100554.72
2022-09-23T01:42:10.596Z,100554.91
2022-09-23T01:44:48.783Z,100553.75
2022-09-23T01:47:22.784Z,100547.16
2022-09-23T01:50:00.097Z,100547.55
2022-09-23T01:52:35.922Z,100548.96
2022-09-23T01:55:23.882Z,100552.30
2022-09-23T01:58:08.373Z,100547.54
2022-09-23T02:00:42.687Z,100545.88
2022-09-23T02:03:47.243Z,100548.71
2022-09-23T02:06:23.215Z,100553.45
2022-09-23T02:09:02.819Z,100554.52
2022-09-23T02:11:36.209Z,100556.68
2022-09-23T02:14:27.558Z,100561.20
2022-09-23T02:17:00.737Z,100560.62
2022-09-23T02:19:55.524Z,100555.94
2022-09-23T02:22:30.716Z,100555.61
2022-09-23T02:24:58.805Z,100555.70
2022-09-23T02:27:36.293Z,100552.95
2022-09-23T02:30:12.025Z,100551.30
2022-09-23T02:33:02.631Z,100548.14
2022-09-23T02:35:53.228Z,100549.58
2022-09-23T02:38:44.649Z,100553.14
2022-09-23T02:41:32.615Z,100554.90
2022-09-23T02:44:06.325Z,100553.34
2022-09-23T02:46:35.456Z,100551.33
2022-09-23T02:49:13.529Z,100552.37
2022-09-23T02:51:41.603Z,100548.66
2022-09-23T02:54:14.998Z,100547.67
2022-09-23T02:56:42.947Z,100545.27
2022-09-23T02:59:12.536Z,100543.87
2022-09-23T03:01:56.592Z,100544.02
2022-09-23T03:04:40.325Z,100540.98
2022-09-23T03:07:33.562Z,100537.69
2022-09-23T03:10:33.186Z,100534.55
2022-09-23T03:13:14.714Z,100533.86
2022-09-23T03:16:05.185Z,100532.77
2022-09-23T03:18:42.693Z,100528.77
2022-09-23T03:21:33.683Z,100529.27
2022-09-23T03:24:06.905Z,100530.45
2022-09-23T03:26:37.615Z,100530.48
2022-09-23T03:29:11.357Z,100530.74
2022-09-23T03:31:42.506Z,100532.51
2022-09-23T03:34:16.235Z,100528.83
2022-09-23T03:37:26.193Z,100530.54
2022-09-23T03:40:13.748Z,100531.73
2022-09-23T03:42:42.010Z,100531.71
2022-09-23T03:45:18.430Z,100528.84
2022-09-23T03:47:46.130Z,100532.12
2022-09-23T03:50:14.110Z,100531.04
2022-09-23T03:52:41.745Z,100532.77
2022-09-23T03:55:11.379Z,100531.45
2022-09-23T03:57:39.630Z,100528.04
2022-09-23T04:00:08.008Z,100527.38
2022-09-23T04:02:41.871Z,100525.94
2022-09-23T04:05:11.487Z,100529.05
2022-09-23T04:07:39.498Z,100526.54
2022-09-23T04:10:08.034Z,100521.95
2022-09-23T04:12:37.840Z,100524.95
2022-09-23T04:15:06.452Z,100521.38
2022-09-23T04:17:34.411Z,100517.59
2022-09-23T04:20:02.535Z,100519.53
2022-09-23T04:22:31.059Z,100517.06
2022-09-23T04:24:58.738Z,100512.66
2022-09-23T04:27:26.586Z,100515.81
2022-09-23T04:29:54.324Z,100514.69
2022-09-23T04:32:22.033Z,100523.22
2022-09-23T04:34:49.747Z,100522.51
2022-09-23T04:37:17.468Z,100522.16
2022-09-23T04:39:45.148Z,100523.12
2022-09-23T04:42:12.838Z,100517.67
2022-09-23T04:44:40.692Z,100514.56
2022-09-23T04:47:08.453Z,100514.59
2022-09-23T04:49:36.177Z,100514.39
2022-09-23T04:52:05.336Z,100510.38
2022-09-23T04:54:33.116Z,100507.56
2022-09-23T04:57:00.855Z,100507.23
2022-09-23T04:59:28.648Z,100509.47
2022-09-23T05:01:56.386Z,100511.54
2022-09-23T05:04:24.585Z,100513.30
2022-09-23T05:06:52.268Z,100513.51
2022-09-23T05:09:20.030Z,100512.98
2022-09-23T05:11:48.266Z,100512.36
2022-09-23T05:14:16.057Z,100510.44
2022-09-23T05:16:43.906Z,100512.69
2022-09-23T05:19:13.598Z,100512.19
2022-09-23T05:21:41.619Z,100511.74
2022-09-23T05:24:09.863Z,100516.30
2022-09-23T05:26:38.463Z,100510.24
2022-09-23T05:29:06.548Z,100511.79
2022-09-23T05:31:35.097Z,100511.86
2022-09-23T05:34:05.211Z,100513.77
2022-09-23T05:36:38.708Z,100513.63
2022-09-23T05:39:08.748Z,100516.56
2022-09-23T05:41:36.732Z,100515.56
2022-09-23T05:44:05.027Z,100516.75
2022-09-23T05:46:33.364Z,100515.52
2022-09-23T05:49:03.623Z,100511.86
2022-09-23T05:51:34.326Z,100515.55
2022-09-23T05:54:04.412Z,100520.15
2022-09-23T05:56:34.843Z,100517.42
2022-09-23T05:59:04.071Z,100516.95
2022-09-23T06:01:35.413Z,100515.46
2022-09-23T06:04:05.786Z,100519.10
2022-09-23T06:06:39.572Z,100520.09
2022-09-23T06:09:11.702Z,100521.92
2022-09-23T06:11:41.954Z,100521.59
2022-09-23T06:14:12.859Z,100522.30
2022-09-23T06:16:41.396Z,100521.40
2022-09-23T06:19:10.495Z,100523.92
2022-09-23T06:21:40.547Z,100524.89
2022-09-23T06:24:21.308Z,100529.99
2022-09-23T06:27:09.850Z,100533.52
2022-09-23T06:29:40.130Z,100531.82
2022-09-23T06:32:09.077Z,100526.09
2022-09-23T06:34:51.555Z,100529.06
2022-09-23T06:37:21.000Z,100525.10
2022-09-23T06:39:54.890Z,100529.48
2022-09-23T06:42:22.988Z,100526.95
2022-09-23T06:44:52.648Z,100527.52
2022-09-23T06:47:22.929Z,100529.52
2022-09-23T06:49:51.557Z,100524.89
2022-09-23T06:52:21.221Z,100529.98
2022-09-23T06:54:49.115Z,100529.59
2022-09-23T06:57:16.957Z,100528.92
2022-09-23T06:59:44.906Z,100526.38
2022-09-23T07:02:13.458Z,100525.99
2022-09-23T07:04:41.549Z,100528.58
2022-09-23T07:07:11.536Z,100530.11
2022-09-23T07:09:39.539Z,100531.09
2022-09-23T07:12:08.265Z,100533.22
2022-09-23T07:14:36.191Z,100531.02
2022-09-23T07:17:04.322Z,100532.16
2022-09-23T07:19:32.523Z,100529.87
2022-09-23T07:22:00.453Z,100528.20
2022-09-23T07:24:28.330Z,100528.30
2022-09-23T07:26:56.217Z,100529.96
2022-09-23T07:29:24.052Z,100528.42
2022-09-23T07:31:52.690Z,100526.15
2022-09-23T07:34:21.922Z,100521.52
2022-09-23T07:36:50.308Z,100517.84
2022-09-23T07:39:18.197Z,100518.02
2022-09-23T07:41:46.003Z,100518.45
2022-09-23T07:44:13.884Z,100519.13
2022-09-23T07:46:41.995Z,100519.63
2022-09-23T07:49:10.691Z,100519.44
2022-09-23T07:51:40.487Z,100517.66
2022-09-23T07:54:13.052Z,100519.16
2022-09-23T07:56:42.450Z,100519.66
2022-09-23T07:59:18.079Z,100518.19
2022-09-23T08:01:49.103Z,100520.23
2022-09-23T08:04:26.849Z,100517.11
2022-09-23T08:07:06.128Z,100511.25
2022-09-23T08:09:41.633Z,100514.10
2022-09-23T08:12:18.881Z,100508.48
2022-09-23T08:14:46.726Z,100510.96
2022-09-23T08:17:14.959Z,100506.02
2022-09-23T08:19:42.816Z,100508.34
2022-09-23T08:22:12.113Z,100508.70
2022-09-23T08:24:39.945Z,100505.55
2022-09-23T08:27:08.129Z,100505.64
2022-09-23T08:29:36.019Z,100506.41
2022-09-23T08:32:03.947Z,100507.73
2022-09-23T08:34:31.776Z,100499.42
2022-09-23T08:36:59.625Z,100499.27
2022-09-23T08:39:27.489Z,100496.17
2022-09-23T08:42:12.470Z,100498.30
2022-09-23T08:44:58.997Z,100493.27
2022-09-23T08:47:43.836Z,100488.93
2022-09-23T08:50:18.147Z,100491.05
2022-09-23T08:53:04.759Z,100486.73
2022-09-23T08:55:50.856Z,100491.14
2022-09-23T08:58:51.203Z,100492.21
2022-09-23T09:01:41.554Z,100485.20
2022-09-23T09:04:18.569Z,100484.82
2022-09-23T09:10:09.149Z,100477.69
2022-09-23T09:12:59.373Z,100475.45
2022-09-23T09:15:28.542Z,100474.69
2022-09-23T09:18:02.464Z,100472.96
2022-09-23T09:20:35.035Z,100476.90
2022-09-23T09:23:23.382Z,100472.36
2022-09-23T09:25:54.443Z,100470.15
2022-09-23T09:28:31.007Z,100468.02
2022-09-23T09:31:26.847Z,100470.79
2022-09-23T09:33:59.543Z,100464.89
2022-09-23T09:36:38.357Z,100466.70
2022-09-23T09:39:06.955Z,100466.29
2022-09-23T09:41:35.003Z,100467.02
2022-09-23T09:44:19.660Z,100463.29
2022-09-23T09:47:20.919Z,100463.83
2022-09-23T09:49:59.107Z,100462.60
2022-09-23T09:52:29.711Z,100457.31
2022-09-23T09:55:14.270Z,100457.91
2022-09-23T09:57:52.325Z,100459.40
2022-09-23T10:00:26.920Z,100457.00
2022-09-23T10:03:04.651Z,100461.00
2022-09-23T10:05:51.768Z,100456.33
2022-09-23T10:08:37.918Z,100455.41
2022-09-23T10:11:21.083Z,100450.36
2022-09-23T10:14:26.480Z,100444.84
2022-09-23T10:17:05.900Z,100442.88
2022-09-23T10:19:41.984Z,100442.20
2022-09-23T10:22:32.129Z,100446.46
2022-09-23T10:25:07.608Z,100436.90
2022-09-23T10:27:37.066Z,100433.95
2022-09-23T10:30:21.843Z,100431.33
2022-09-23T10:32:53.234Z,100425.83
2022-09-23T10:35:24.462Z,100430.35
2022-09-23T10:37:59.899Z,100427.84
2022-09-23T10:44:11.560Z,100430.03
2022-09-23T10:46:53.045Z,100430.51
2022-09-23T10:49:35.817Z,100431.11
2022-09-23T10:52:36.776Z,100434.85
2022-09-23T10:55:29.064Z,100433.77
2022-09-23T10:58:17.729Z,100431.96
2022-09-23T11:00:52.271Z,100430.60
2022-09-23T11:03:42.427Z,100434.79
2022-09-23T11:06:21.106Z,100430.44
2022-09-23T11:09:05.397Z,100429.17
2022-09-23T11:12:02.227Z,100423.15
2022-09-23T11:14:53.011Z,100423.91
2022-09-23T11:17:39.561Z,100416.77
2022-09-23T11:20:30.253Z,100414.87
2022-09-23T11:23:37.913Z,100407.27
2022-09-23T11:26:20.639Z,100403.75
2022-09-23T11:29:20.372Z,100400.02
2022-09-23T11:32:14.318Z,100399.14
2022-09-23T11:34:42.005Z,100396.52
2022-09-23T11:37:22.141Z,100397.02
2022-09-23T11:39:57.674Z,100400.61
2022-09-23T11:42:32.231Z,100395.41
2022-09-23T11:45:15.031Z,100396.22
2022-09-23T11:47:50.382Z,100397.26
2022-09-23T11:50:29.587Z,100391.95
2022-09-23T11:53:36.813Z,100393.13
2022-09-23T11:56:27.520Z,100392.30
2022-09-23T11:59:39.678Z,100388.69
2022-09-23T12:02:33.599Z,100380.61
2022-09-23T12:05:09.559Z,100382.90
2022-09-23T12:08:06.575Z,100376.68
2022-09-23T12:10:55.923Z,100370.64
2022-09-23T12:13:47.373Z,100369.84
2022-09-23T12:16:37.335Z,100367.36
2022-09-23T12:19:37.199Z,100369.20
2022-09-23T12:22:24.065Z,100368.67
2022-09-23T12:25:10.363Z,100360.30
2022-09-23T12:27:45.607Z,100359.08
2022-09-23T12:30:23.170Z,100356.77
2022-09-23T12:32:51.320Z,100353.82
2022-09-23T12:35:38.527Z,100355.11
2022-09-23T12:38:38.331Z,100351.10
2022-09-23T12:41:19.194Z,100357.60
2022-09-23T12:44:21.136Z,100358.30
2022-09-23T12:47:14.663Z,100354.89
2022-09-23T12:49:43.720Z,100356.43
2022-09-23T12:52:11.752Z,100352.88
2022-09-23T12:54:41.402Z,100348.36
2022-09-23T12:57:34.836Z,100346.69
2022-09-23T13:00:12.879Z,100351.70
2022-09-23T13:02:42.912Z,100348.46
2022-09-23T13:05:36.564Z,100345.04
2022-09-23T13:08:23.082Z,100349.44
2022-09-23T13:11:00.182Z,100343.38
2022-09-23T13:13:32.477Z,100337.38
2022-09-23T13:16:16.391Z,100336.27
2022-09-23T13:18:52.603Z,100333.60
2022-09-23T13:21:42.103Z,100332.62
2022-09-23T13:24:12.971Z,100322.14
2022-09-23T13:26:46.644Z,100319.18
2022-09-23T13:29:26.827Z,100317.00
2022-09-23T13:31:58.143Z,100306.60
2022-09-23T13:34:32.791Z,100305.58
2022-09-23T13:37:37.911Z,100306.16
2022-09-23T13:40:25.401Z,100301.97
2022-09-23T13:43:03.175Z,100304.66
2022-09-23T13:45:36.182Z,100302.34
2022-09-23T13:48:15.221Z,100296.69
2022-09-23T13:50:48.539Z,100300.07
2022-09-23T13:53:23.276Z,100295.65
2022-09-23T13:56:16.367Z,100291.03
2022-09-23T13:58:44.289Z,100287.94
2022-09-23T14:01:36.183Z,100289.58
2022-09-23T14:04:04.130Z,100288.12
2022-09-23T14:06:38.353Z,100278.58
2022-09-23T14:09:06.644Z,100275.52
2022-09-23T14:11:35.516Z,100267.01
2022-09-23T14:14:08.115Z,100270.02
2022-09-23T14:16:39.658Z,100270.52
2022-09-23T14:19:17.517Z,100265.81
2022-09-23T14:21:52.927Z,100263.08
2022-09-23T14:24:30.903Z,100263.52
2022-09-23T14:27:04.375Z,100265.96
2022-09-23T14:29:44.154Z,100267.04
2022-09-23T14:32:17.584Z,100268.55
2022-09-23T14:35:02.685Z,100265.73
2022-09-23T14:37:47.125Z,100263.99
2022-09-23T14:40:21.541Z,100260.30
2022-09-23T14:42:52.488Z,100265.73
2022-09-23T14:45:24.714Z,100258.27
2022-09-23T14:48:18.751Z,100264.07
2022-09-23T14:50:48.549Z,100258.92
2022-09-23T14:53:22.745Z,100260.14
2022-09-23T14:55:59.671Z,100254.46
2022-09-23T14:58:28.746Z,100247.45
2022-09-23T15:01:00.337Z,100247.82
2022-09-23T15:03:28.928Z,100247.89
2022-09-23T15:06:09.245Z,100246.23
2022-09-23T15:08:37.244Z,100240.11
2022-09-23T15:11:08.379Z,100237.75
2022-09-23T15:13:44.230Z,100236.20
2022-09-23T15:16:15.344Z,100234.98
2022-09-23T15:18:46.366Z,100233.27
2022-09-23T15:29:09.666Z,100230.39
2022-09-23T15:31:37.700Z,100227.27
2022-09-23T15:34:06.066Z,100230.23
2022-09-23T15:36:34.917Z,100225.52
2022-09-23T15:39:05.968Z,100231.75
2022-09-23T15:41:34.180Z,100230.77
2022-09-23T15:44:29.876Z,100230.25
2022-09-23T15:47:01.204Z,100226.82
2022-09-23T15:49:33.956Z,100226.70
2022-09-23T15:52:04.140Z,100226.04
2022-09-23T15:54:33.813Z,100224.35
2022-09-23T15:57:02.088Z,100221.44
2022-09-23T15:59:33.334Z,100220.54
2022-09-23T16:02:07.922Z,100223.48
2022-09-23T16:04:36.047Z,100220.00
2022-09-23T16:07:05.627Z,100223.40
2022-09-23T16:09:33.574Z,100223.19
2022-09-23T16:12:03.265Z,100223.84
2022-09-23T16:14:31.094Z,100225.66
2022-09-23T16:16:59.030Z,100223.30
2022-09-23T16:19:27.659Z,100228.77
2022-09-23T16:21:55.581Z,100228.91
2022-09-23T16:24:28.003Z,100232.14
2022-09-23T16:27:00.007Z,100231.58
2022-09-23T16:29:27.938Z,100234.79
2022-09-23T16:31:55.892Z,100233.58
2022-09-23T16:34:23.887Z,100231.20
2022-09-23T16:36:51.763Z,100228.29
2022-09-23T16:39:20.622Z,100229.54
2022-09-23T16:41:48.491Z,100229.63
2022-09-23T16:44:16.447Z,100227.48
2022-09-23T16:46:44.355Z,100228.81
2022-09-23T16:49:13.499Z,100228.08
2022-09-23T16:51:41.386Z,100225.51
2022-09-23T16:54:12.260Z,100223.06
2022-09-23T16:56:44.254Z,100224.70
2022-09-23T16:59:13.666Z,100226.13
2022-09-23T17:01:58.308Z,100227.02
2022-09-23T17:04:27.641Z,100229.36
2022-09-23T17:06:56.529Z,100229.73
2022-09-23T17:09:27.447Z,100228.71
2022-09-23T17:11:59.819Z,100228.25
2022-09-23T17:14:31.081Z,100228.02
2022-09-23T17:16:59.047Z,100224.78
2022-09-23T17:19:27.018Z,100227.95
2022-09-23T17:21:54.917Z,100229.42
2022-09-23T17:24:22.814Z,100227.64
2022-09-23T17:26:53.319Z,100226.98
2022-09-23T17:29:21.758Z,100227.30
2022-09-23T17:31:49.971Z,100224.56
2022-09-23T17:34:21.386Z,100223.27
2022-09-23T17:36:49.628Z,100221.20
2022-09-23T17:39:17.915Z,100224.78
2022-09-23T17:41:45.747Z,100221.38
2022-09-23T17:44:15.544Z,100223.83
2022-09-23T17:46:43.718Z,100226.00
2022-09-23T17:49:12.175Z,100221.95
2022-09-23T17:51:40.538Z,100220.44
2022-09-23T17:54:08.916Z,100220.86
2022-09-23T17:56:36.804Z,100225.61
2022-09-23T17:59:04.709Z,100223.98
2022-09-23T18:01:32.968Z,100224.05
2022-09-23T18:04:05.651Z,100222.98
2022-09-23T18:06:35.801Z,100224.00
2022-09-23T18:09:06.675Z,100224.48
2022-09-23T18:11:40.092Z,100227.27
2022-09-23T18:14:23.031Z,100226.09
2022-09-23T18:16:53.634Z,100223.73
2022-09-23T18:19:24.559Z,100227.89
2022-09-23T18:21:56.381Z,100226.39
2022-09-23T18:24:32.214Z,100230.46
2022-09-23T18:27:02.291Z,100232.61
2022-09-23T18:29:30.387Z,100231.44
2022-09-23T18:31:59.443Z,100231.73
2022-09-23T18:34:28.883Z,100228.14
2022-09-23T18:36:57.048Z,100226.98
2022-09-23T18:39:25.053Z,100222.48
2022-09-23T18:41:53.098Z,100220.75
2022-09-23T18:44:21.147Z,100221.20
2022-09-23T18:46:49.074Z,100218.23
2022-09-23T18:49:32.871Z,100220.23
2022-09-23T18:52:00.747Z,100218.67
2022-09-23T18:54:29.052Z,100221.54
2022-09-23T18:56:57.712Z,100219.36
2022-09-23T18:59:29.674Z,100225.14
2022-09-23T19:01:59.095Z,100227.27
2022-09-23T19:04:27.359Z,100228.64
2022-09-23T19:06:57.241Z,100222.93
2022-09-23T19:09:25.770Z,100217.87
2022-09-23T19:11:53.804Z,100220.48
2022-09-23T19:14:22.347Z,100223.14
2022-09-23T19:16:50.944Z,100223.33
2022-09-23T19:19:19.155Z,100227.36
2022-09-23T19:21:47.422Z,100227.33
2022-09-23T19:24:20.562Z,100222.77
2022-09-23T19:26:50.325Z,100219.98
2022-09-23T19:29:22.144Z,100222.77
2022-09-23T19:31:51.226Z,100224.19
2022-09-23T19:34:23.907Z,100225.91
2022-09-23T19:36:55.905Z,100228.99
2022-09-23T19:39:26.932Z,100229.77
2022-09-23T19:41:58.817Z,100230.36
2022-09-23T19:44:27.345Z,100232.35
2022-09-23T19:46:57.284Z,100232.94
2022-09-23T19:49:26.089Z,100231.83
2022-09-23T19:51:55.942Z,100227.45
2022-09-23T19:54:27.351Z,100225.06
2022-09-23T19:56:55.670Z,100220.89
2022-09-23T19:59:23.626Z,100217.05
2022-09-23T20:01:51.643Z,100217.67
2022-09-23T20:04:20.267Z,100218.61
2022-09-23T20:06:49.586Z,100217.09
2022-09-23T20:09:17.515Z,100223.15
2022-09-23T20:11:45.438Z,100219.13
2022-09-23T20:14:13.765Z,100218.38
2022-09-23T20:16:41.911Z,100216.17
2022-09-23T20:19:12.977Z,100214.15
2022-09-23T20:21:40.847Z,100210.63
2022-09-23T20:24:09.754Z,100210.02
2022-09-23T20:26:53.974Z,100212.35
2022-09-23T20:29:22.493Z,100213.15
2022-09-23T20:31:50.561Z,100209.75
2022-09-23T20:34:18.557Z,100210.48
2022-09-23T20:36:46.454Z,100208.06
2022-09-23T20:39:14.362Z,100202.56
2022-09-23T20:41:42.252Z,100204.61
2022-09-23T20:44:14.255Z,100207.36
2022-09-23T20:46:48.451Z,100207.55
2022-09-23T20:49:17.734Z,100205.67
2022-09-23T20:51:48.680Z,100203.45
2022-09-23T20:54:20.397Z,100205.06
2022-09-23T20:56:48.319Z,100206.54
2022-09-23T20:59:18.199Z,100204.08
2022-09-23T21:01:46.642Z,100205.30
2022-09-23T21:04:15.072Z,100200.79
2022-09-23T21:06:42.973Z,100203.73
2022-09-23T21:09:10.824Z,100200.40
2022-09-23T21:11:38.820Z,100202.30
2022-09-23T21:14:07.086Z,100200.04
2022-09-23T21:16:35.343Z,100202.09
2022-09-23T21:19:03.917Z,100205.69
2022-09-23T21:21:31.951Z,100209.02
2022-09-23T21:24:24.462Z,100207.94
2022-09-23T21:26:50.301Z,100205.65
2022-09-23T21:29:18.393Z,100201.00
2022-09-23T21:31:48.495Z,100201.17
2022-09-23T21:34:16.905Z,100199.89
2022-09-23T21:36:46.214Z,100201.51
2022-09-23T21:39:14.703Z,100203.06
2022-09-23T21:41:42.596Z,100204.69
2022-09-23T21:44:12.075Z,100196.19
2022-09-23T21:46:40.062Z,100194.71
2022-09-23T21:49:09.159Z,100193.45
2022-09-23T21:51:41.117Z,100196.52
2022-09-23T21:54:15.920Z,100194.12
2022-09-23T21:56:44.115Z,100195.89
2022-09-23T21:59:12.377Z,100194.04
2022-09-23T22:01:44.477Z,100193.61
2022-09-23T22:04:18.067Z,100194.36
2022-09-23T22:06:46.831Z,100189.92
2022-09-23T22:09:18.617Z,100191.16
2022-09-23T22:12:03.037Z,100190.82
2022-09-23T22:14:31.324Z,100189.54
2022-09-23T22:17:04.457Z,100192.22
2022-09-23T22:19:42.687Z,100191.73
2022-09-23T22:22:17.832Z,100189.60
2022-09-23T22:24:47.695Z,100190.59
2022-09-23T22:27:18.886Z,100189.98
2022-09-23T22:30:03.373Z,100186.82
2022-09-23T22:32:52.847Z,100189.92
2022-09-23T22:35:22.428Z,100186.57
2022-09-23T22:37:50.428Z,100186.19
2022-09-23T22:40:18.653Z,100188.77
2022-09-23T22:42:46.715Z,100189.95
2022-09-23T22:45:14.900Z,100189.63
2022-09-23T22:47:45.544Z,100191.23
2022-09-23T22:50:14.963Z,100188.70
2022-09-23T22:52:43.826Z,100185.50
2022-09-23T22:55:12.452Z,100188.62
2022-09-23T22:57:40.736Z,100181.98
2022-09-23T23:00:09.944Z,100181.89
2022-09-23T23:02:37.795Z,100181.25
2022-09-23T23:05:06.279Z,100184.52
2022-09-23T23:07:35.073Z,100179.83
2022-09-23T23:10:04.650Z,100180.36
2022-09-23T23:12:33.557Z,100177.58
2022-09-23T23:15:01.495Z,100173.29
2022-09-23T23:17:29.912Z,100173.28
2022-09-23T23:19:58.053Z,100172.21
2022-09-23T23:22:28.525Z,100166.09
2022-09-23T23:24:56.934Z,100167.00
2022-09-23T23:27:24.830Z,100164.94
2022-09-23T23:29:52.728Z,100167.75
2022-09-23T23:32:20.566Z,100162.46
2022-09-23T23:34:48.418Z,100165.95
2022-09-23T23:37:20.630Z,100171.67
2022-09-23T23:39:49.071Z,100169.33
2022-09-23T23:42:17.675Z,100161.55
2022-09-23T23:44:45.887Z,100164.82
2022-09-23T23:47:13.813Z,100160.95
2022-09-23T23:49:41.696Z,100165.52
2022-09-23T23:52:09.633Z,100162.79
2022-09-23T23:54:37.861Z,100163.63
2022-09-23T23:57:05.913Z,100163.81
2022-09-23T23:59:34.591Z,100160.42
